Time;durP1;ratioP1;P1;durP2;ratioP2;P2;SDS_P1;SDS_P2;PMS_P1;PMS_P2;Temp;Humidity;BMP_temperature;BMP_pressure;BME280_temperature;BME280_humidity;BME280_pressure;Samples;Min_cycle;Max_cycle;Signal;HPM_P1;HPM_P2
2021/06/22 00:00:33;;;;;;;6.23;5.73;;;18.20;99.90;;;;;;5093598;28;20728;-84
2021/06/22 00:03:01;;;;;;;7.77;6.53;;;18.30;99.90;;;;;;5093446;28;20622;-84
2021/06/22 00:05:31;;;;;;;8.83;6.67;;;18.40;99.90;;;;;;5092570;28;21229;-84
2021/06/22 00:07:59;;;;;;;7.17;6.67;;;18.40;99.90;;;;;;5093905;28;20618;-84
2021/06/22 00:10:28;;;;;;;6.60;6.10;;;18.40;99.90;;;;;;5093354;28;20665;-85
2021/06/22 00:12:56;;;;;;;6.10;5.60;;;18.30;99.90;;;;;;5093643;28;20670;-84
2021/06/22 00:15:24;;;;;;;6.87;6.27;;;18.20;99.90;;;;;;5092866;28;20730;-84
2021/06/22 00:17:51;;;;;;;7.30;6.70;;;18.10;99.90;;;;;;5092721;28;21230;-84
2021/06/22 00:20:21;;;;;;;7.33;6.63;;;18.00;99.90;;;;;;5093429;28;20658;-84
2021/06/22 00:22:50;;;;;;;6.60;6.10;;;18.00;99.90;;;;;;5092458;28;20608;-84
2021/06/22 00:25:21;;;;;;;7.23;6.70;;;17.90;99.90;;;;;;5072444;28;20621;-84
2021/06/22 00:27:49;;;;;;;6.77;6.17;;;17.90;99.90;;;;;;5072897;28;20947;-84
2021/06/22 00:30:16;;;;;;;6.53;5.73;;;17.90;99.90;;;;;;5072756;28;20737;-84
2021/06/22 00:32:43;;;;;;;6.53;6.03;;;18.00;99.90;;;;;;5072863;28;20689;-84
2021/06/22 00:35:11;;;;;;;6.47;5.97;;;18.10;99.90;;;;;;5072263;28;20651;-85
2021/06/22 00:37:38;;;;;;;8.23;6.23;;;18.10;99.90;;;;;;5072863;28;20666;-85
2021/06/22 00:40:07;;;;;;;8.63;6.23;;;18.10;99.90;;;;;;5072514;28;20684;-85
2021/06/22 00:42:34;;;;;;;6.23;5.63;;;18.00;99.90;;;;;;5071758;28;20599;-85
2021/06/22 00:45:01;;;;;;;6.37;5.63;;;17.90;99.90;;;;;;5071811;28;20661;-85
2021/06/22 00:47:29;;;;;;;8.83;6.60;;;17.80;99.90;;;;;;5072725;28;20646;-85
2021/06/22 00:49:57;;;;;;;6.10;5.67;;;17.80;99.90;;;;;;5072443;28;20735;-85
2021/06/22 00:52:25;;;;;;;6.60;5.90;;;17.80;99.90;;;;;;5072490;28;20688;-85
2021/06/22 00:54:54;;;;;;;8.03;7.23;;;17.80;99.90;;;;;;5072116;28;20606;-84
2021/06/22 00:57:23;;;;;;;7.10;5.70;;;17.70;99.90;;;;;;5072216;28;20627;-85
2021/06/22 00:59:50;;;;;;;9.37;5.50;;;17.60;99.90;;;;;;5072094;28;20756;-85
2021/06/22 01:02:17;;;;;;;6.37;5.77;;;17.60;99.90;;;;;;5072271;28;20719;-85
2021/06/22 01:04:45;;;;;;;6.30;5.90;;;17.60;99.90;;;;;;5070827;28;21189;-85
2021/06/22 01:07:13;;;;;;;8.70;6.17;;;17.60;99.90;;;;;;5072077;28;20614;-85
2021/06/22 01:09:42;;;;;;;7.03;6.33;;;17.50;99.90;;;;;;5072055;28;20657;-84
2021/06/22 01:12:11;;;;;;;7.10;6.40;;;17.50;99.90;;;;;;5070979;28;20618;-85
2021/06/22 01:14:45;;;;;;;6.23;5.63;;;17.60;99.90;;;;;;5071905;28;21011;-84
2021/06/22 01:17:13;;;;;;;6.47;5.83;;;17.60;99.90;;;;;;5072080;28;21144;-85
2021/06/22 01:19:43;;;;;;;6.53;5.53;;;17.60;99.90;;;;;;5071597;28;20614;-85
2021/06/22 01:22:12;;;;;;;7.47;6.23;;;17.60;99.90;;;;;;5071923;28;20734;-85
2021/06/22 01:24:41;;;;;;;9.50;5.87;;;17.50;99.90;;;;;;5087345;28;20617;-85
2021/06/22 01:27:10;;;;;;;6.30;5.63;;;17.50;99.90;;;;;;5092015;28;20607;-85
2021/06/22 01:29:38;;;;;;;7.57;5.80;;;17.50;99.90;;;;;;5091985;28;20707;-85
2021/06/22 01:32:08;;;;;;;5.80;5.20;;;17.60;99.90;;;;;;5092169;28;20732;-85
2021/06/22 01:34:36;;;;;;;6.10;5.60;;;17.50;99.90;;;;;;5091326;28;20609;-84
2021/06/22 01:37:08;;;;;;;6.57;6.07;;;17.50;99.90;;;;;;5091177;28;20612;-84
2021/06/22 01:39:37;;;;;;;6.60;6.00;;;17.60;99.90;;;;;;5091587;28;20614;-85
2021/06/22 01:42:10;;;;;;;7.03;5.67;;;17.50;99.90;;;;;;5091714;28;20663;-85
2021/06/22 01:44:39;;;;;;;7.27;5.93;;;17.50;99.90;;;;;;5091226;28;20639;-85
2021/06/22 01:47:07;;;;;;;7.10;6.37;;;17.40;99.90;;;;;;5091529;28;20617;-85
2021/06/22 01:49:34;;;;;;;5.80;5.40;;;17.30;99.90;;;;;;5090957;28;21240;-85
2021/06/22 01:52:03;;;;;;;8.27;5.47;;;17.30;99.90;;;;;;5091444;28;20617;-84
2021/06/22 01:54:31;;;;;;;5.77;5.37;;;17.20;99.90;;;;;;5090836;28;20618;-84
2021/06/22 01:57:01;;;;;;;6.70;4.97;;;17.20;99.90;;;;;;5091481;28;20617;-84
2021/06/22 01:59:29;;;;;;;5.10;4.70;;;17.20;99.90;;;;;;5088403;28;20648;-84
2021/06/22 02:01:57;;;;;;;5.30;4.90;;;17.10;99.90;;;;;;5079300;28;20677;-84
2021/06/22 02:04:27;;;;;;;6.57;5.90;;;17.20;99.90;;;;;;5074570;28;20641;-85
2021/06/22 02:06:55;;;;;;;5.87;5.17;;;17.10;99.90;;;;;;5076435;28;20735;-84
2021/06/22 02:09:25;;;;;;;6.07;5.53;;;17.10;99.90;;;;;;5087236;28;20731;-84
2021/06/22 02:11:52;;;;;;;5.30;4.90;;;17.10;99.90;;;;;;5070837;28;21004;-84
2021/06/22 02:14:22;;;;;;;5.33;4.47;;;17.10;99.90;;;;;;5080249;28;20621;-85
2021/06/22 02:16:50;;;;;;;10.67;5.50;;;17.10;99.90;;;;;;5090752;28;20675;-85
2021/06/22 02:19:19;;;;;;;4.70;4.30;;;17.10;99.90;;;;;;5090950;28;20649;-85
2021/06/22 02:21:46;;;;;;;5.53;4.80;;;17.10;99.90;;;;;;5090456;28;20662;-85
2021/06/22 02:24:15;;;;;;;5.50;5.00;;;17.10;99.90;;;;;;5070596;28;20610;-85
2021/06/22 02:26:43;;;;;;;14.27;6.67;;;17.10;99.90;;;;;;5070522;28;20611;-85
2021/06/22 02:29:15;;;;;;;5.33;4.93;;;17.10;99.90;;;;;;5070322;28;20964;-85
2021/06/22 02:31:44;;;;;;;5.43;5.03;;;17.20;99.90;;;;;;5070590;28;20671;-84
2021/06/22 02:34:12;;;;;;;5.63;5.13;;;17.20;99.90;;;;;;5070578;28;20981;-84
2021/06/22 02:36:39;;;;;;;7.43;5.20;;;17.20;99.90;;;;;;5069889;28;21176;-85
2021/06/22 02:39:06;;;;;;;5.33;4.87;;;17.10;99.90;;;;;;5072939;28;20625;-84
2021/06/22 02:41:33;;;;;;;5.77;5.33;;;17.10;99.90;;;;;;5090377;28;20703;-85
2021/06/22 02:44:00;;;;;;;5.63;5.10;;;17.10;99.90;;;;;;5090727;28;20953;-85
2021/06/22 02:46:27;;;;;;;5.73;4.60;;;17.10;99.90;;;;;;5090128;28;20684;-84
2021/06/22 02:48:55;;;;;;;7.13;5.10;;;17.10;99.90;;;;;;5090820;28;20617;-84
2021/06/22 02:51:22;;;;;;;6.50;5.80;;;17.10;99.90;;;;;;5089711;28;20717;-84
2021/06/22 02:53:49;;;;;;;5.80;5.30;;;17.10;99.90;;;;;;5090530;28;20974;-84
2021/06/22 02:56:16;;;;;;;6.67;6.07;;;17.30;99.90;;;;;;5089533;28;20607;-84
2021/06/22 02:58:43;;;;;;;7.47;5.30;;;17.30;99.90;;;;;;5090382;28;20991;-85
2021/06/22 03:01:10;;;;;;;7.67;5.77;;;17.20;99.90;;;;;;5090509;28;20637;-85
2021/06/22 03:03:37;;;;;;;6.43;5.83;;;17.20;99.90;;;;;;5090277;28;21098;-85
2021/06/22 03:06:06;;;;;;;6.20;5.70;;;17.30;99.90;;;;;;5089240;28;20606;-85
2021/06/22 03:08:33;;;;;;;6.07;5.47;;;17.20;99.90;;;;;;5090348;28;20721;-85
2021/06/22 03:11:00;;;;;;;5.73;5.10;;;17.20;99.90;;;;;;5089555;28;20613;-84
2021/06/22 03:13:27;;;;;;;6.63;5.60;;;17.20;99.90;;;;;;5085986;28;20617;-84
2021/06/22 03:15:53;;;;;;;7.27;6.00;;;17.20;99.90;;;;;;5069766;28;20618;-85
2021/06/22 03:18:20;;;;;;;6.43;5.83;;;17.10;99.90;;;;;;5070135;28;20606;-84
2021/06/22 03:20:47;;;;;;;6.43;5.87;;;17.10;99.90;;;;;;5070109;28;20649;-85
2021/06/22 03:23:15;;;;;;;7.00;6.40;;;17.10;99.90;;;;;;5070329;28;20605;-86
2021/06/22 03:25:42;;;;;;;7.50;6.27;;;17.10;99.90;;;;;;5069887;28;20613;-85
2021/06/22 03:28:09;;;;;;;6.80;6.20;;;17.00;99.90;;;;;;5070067;28;20598;-84
2021/06/22 03:30:36;;;;;;;6.20;5.70;;;17.10;99.90;;;;;;5070075;28;21147;-84
2021/06/22 03:33:04;;;;;;;6.47;5.90;;;17.10;99.90;;;;;;5070609;28;20637;-84
2021/06/22 03:35:31;;;;;;;6.57;6.07;;;17.20;99.90;;;;;;5069250;28;20598;-85
2021/06/22 03:37:58;;;;;;;6.90;6.30;;;17.20;99.90;;;;;;5069183;28;20718;-84
2021/06/22 03:40:26;;;;;;;7.40;6.83;;;17.20;99.90;;;;;;5069533;28;20684;-84
2021/06/22 03:42:53;;;;;;;7.00;6.40;;;17.40;99.90;;;;;;5070022;28;20706;-85
2021/06/22 03:45:20;;;;;;;7.17;6.57;;;17.50;99.90;;;;;;5069423;28;20636;-85
2021/06/22 03:47:48;;;;;;;7.30;6.50;;;17.40;99.90;;;;;;5069972;28;20659;-85
2021/06/22 03:50:15;;;;;;;7.80;7.10;;;17.50;99.90;;;;;;5069697;28;20994;-85
2021/06/22 03:52:42;;;;;;;8.10;7.33;;;17.50;99.90;;;;;;5069483;28;21192;-85
2021/06/22 03:55:29;;;;;;;7.73;6.87;;;17.50;99.90;;;;;;5069438;28;20685;-85
2021/06/22 03:57:59;;;;;;;7.70;6.30;;;17.40;99.90;;;;;;5069756;28;20630;-85
2021/06/22 04:00:26;;;;;;;7.80;7.20;;;17.30;99.90;;;;;;5069643;28;20611;-84
2021/06/22 04:02:55;;;;;;;8.43;6.33;;;17.30;99.90;;;;;;5069204;28;20659;-85
2021/06/22 04:05:22;;;;;;;8.00;7.30;;;17.40;99.90;;;;;;5069360;28;20633;-85
2021/06/22 04:07:49;;;;;;;8.87;7.97;;;17.50;99.90;;;;;;5069403;28;20666;-85
2021/06/22 04:10:16;;;;;;;8.07;7.47;;;17.60;99.90;;;;;;5069017;28;20663;-85
2021/06/22 04:12:43;;;;;;;7.60;6.90;;;17.70;99.90;;;;;;5069492;28;21553;-85
2021/06/22 04:15:13;;;;;;;8.90;8.00;;;17.80;99.90;;;;;;5087822;28;20631;-85
2021/06/22 04:17:40;;;;;;;9.63;8.00;;;17.70;99.90;;;;;;5089805;28;20623;-85
2021/06/22 04:20:08;;;;;;;8.63;7.93;;;17.70;99.90;;;;;;5093426;28;21228;-85
2021/06/22 04:22:35;;;;;;;9.07;8.17;;;17.70;99.90;;;;;;5093153;28;20647;-85
2021/06/22 04:25:02;;;;;;;13.83;8.47;;;17.80;99.90;;;;;;5092970;28;20640;-85
2021/06/22 04:27:29;;;;;;;11.60;10.60;;;17.90;99.90;;;;;;5093374;28;21008;-85
2021/06/22 04:29:56;;;;;;;15.27;11.47;;;17.90;99.90;;;;;;5092885;28;20606;-85
2021/06/22 04:32:24;;;;;;;13.17;11.77;;;18.00;99.90;;;;;;5093537;28;20620;-85
2021/06/22 04:34:51;;;;;;;14.97;13.47;;;18.10;99.90;;;;;;5092784;28;20722;-86
2021/06/22 04:37:18;;;;;;;15.37;13.83;;;18.10;99.90;;;;;;5093047;28;20612;-85
2021/06/22 04:39:45;;;;;;;16.30;14.13;;;18.20;99.90;;;;;;5092872;28;20655;-85
2021/06/22 04:42:12;;;;;;;15.37;13.87;;;18.20;99.90;;;;;;5093108;28;20653;-85
2021/06/22 04:44:39;;;;;;;14.63;13.23;;;18.30;99.90;;;;;;5092066;28;20631;-85
2021/06/22 04:47:06;;;;;;;15.97;14.37;;;18.30;99.90;;;;;;5093017;28;20655;-86
2021/06/22 04:49:34;;;;;;;14.93;13.33;;;18.40;99.90;;;;;;5092823;28;20610;-85
2021/06/22 04:52:01;;;;;;;15.50;13.90;;;18.40;99.90;;;;;;5092834;28;20624;-86
2021/06/22 04:54:28;;;;;;;14.63;13.17;;;18.40;99.90;;;;;;5091989;28;20662;-85
2021/06/22 04:56:55;;;;;;;14.97;13.50;;;18.40;99.90;;;;;;5092677;28;21014;-85
2021/06/22 04:59:22;;;;;;;17.80;14.50;;;18.50;99.90;;;;;;5092805;28;21224;-86
2021/06/22 05:01:49;;;;;;;17.70;14.40;;;18.60;99.90;;;;;;5092573;28;21074;-86
2021/06/22 05:04:16;;;;;;;16.60;14.83;;;18.50;99.90;;;;;;5092494;28;20639;-86
2021/06/22 05:06:44;;;;;;;15.13;13.73;;;18.60;99.90;;;;;;5092448;28;20639;-85
2021/06/22 05:09:11;;;;;;;15.93;13.97;;;18.60;99.90;;;;;;5092158;28;20659;-86
2021/06/22 05:11:39;;;;;;;15.40;13.90;;;18.60;99.90;;;;;;5091379;28;20623;-86
2021/06/22 05:14:06;;;;;;;18.00;14.30;;;18.60;99.90;;;;;;5082666;28;20623;-86
2021/06/22 05:16:33;;;;;;;17.80;14.00;;;18.60;99.90;;;;;;5071621;28;20613;-86
2021/06/22 05:19:00;;;;;;;15.50;13.97;;;18.60;99.90;;;;;;5072179;28;20655;-86
2021/06/22 05:21:26;;;;;;;17.90;14.43;;;18.70;99.90;;;;;;5072163;28;20653;-86
2021/06/22 05:23:55;;;;;;;20.17;15.30;;;18.70;99.90;;;;;;5071550;28;21178;-86
2021/06/22 05:26:22;;;;;;;14.50;13.10;;;18.60;99.90;;;;;;5070852;28;21176;-86
2021/06/22 05:28:49;;;;;;;15.43;13.93;;;18.70;99.90;;;;;;5071365;28;20652;-85
2021/06/22 05:31:16;;;;;;;15.07;13.57;;;18.70;99.90;;;;;;5071828;28;21004;-86
2021/06/22 05:33:43;;;;;;;14.53;13.07;;;18.70;99.90;;;;;;5071667;28;20617;-85
2021/06/22 05:36:10;;;;;;;13.57;12.37;;;18.80;99.90;;;;;;5071126;28;20608;-85
2021/06/22 05:38:37;;;;;;;18.90;12.83;;;18.80;99.90;;;;;;5071288;28;20633;-85
2021/06/22 05:41:05;;;;;;;15.47;13.87;;;18.80;99.90;;;;;;5070919;28;20645;-85
2021/06/22 05:43:33;;;;;;;13.57;12.37;;;18.80;99.90;;;;;;5071512;28;20618;-85
2021/06/22 05:46:00;;;;;;;13.80;12.50;;;18.90;99.90;;;;;;5071009;28;20628;-85
2021/06/22 05:48:27;;;;;;;12.87;11.77;;;18.90;99.90;;;;;;5071501;28;20620;-86
2021/06/22 05:50:54;;;;;;;13.17;11.90;;;19.00;99.90;;;;;;5071535;28;20649;-85
2021/06/22 05:53:21;;;;;;;15.37;11.93;;;18.90;99.90;;;;;;5071200;28;20621;-85
2021/06/22 05:55:50;;;;;;;14.90;12.03;;;18.90;99.90;;;;;;5081440;28;20668;-85
2021/06/22 05:58:20;;;;;;;12.73;11.43;;;18.90;99.90;;;;;;5076883;28;20704;-85
2021/06/22 06:00:48;;;;;;;12.67;11.47;;;19.00;99.90;;;;;;5088302;28;20696;-86
2021/06/22 06:03:15;;;;;;;12.77;11.57;;;19.10;99.90;;;;;;5071083;28;20656;-87
2021/06/22 06:05:42;;;;;;;11.50;10.40;;;19.00;99.90;;;;;;5078607;28;20624;-86
2021/06/22 06:08:09;;;;;;;10.83;9.97;;;19.00;99.90;;;;;;5091238;28;20612;-85
2021/06/22 06:10:36;;;;;;;12.13;11.13;;;18.90;99.90;;;;;;5090155;28;20612;-87
2021/06/22 06:13:03;;;;;;;12.23;11.03;;;19.00;99.90;;;;;;5091139;28;20616;-86
2021/06/22 06:15:31;;;;;;;13.20;12.10;;;19.00;99.90;;;;;;5071676;28;20826;-86
2021/06/22 06:17:58;;;;;;;15.27;12.40;;;18.90;99.90;;;;;;5071002;28;20947;-86
2021/06/22 06:20:27;;;;;;;14.10;12.80;;;18.80;99.90;;;;;;5070286;28;21192;-85
2021/06/22 06:22:54;;;;;;;13.60;12.20;;;18.60;99.90;;;;;;5070748;28;20764;-86
2021/06/22 06:25:21;;;;;;;13.20;11.93;;;18.70;99.90;;;;;;5070146;28;20962;-85
2021/06/22 06:27:52;;;;;;;13.80;12.57;;;18.60;99.90;;;;;;5070651;28;21228;-86
2021/06/22 06:30:21;;;;;;;13.90;12.50;;;18.60;99.90;;;;;;5070722;28;20714;-86
2021/06/22 06:32:50;;;;;;;14.60;13.27;;;18.60;99.90;;;;;;5070848;28;20625;-85
2021/06/22 06:35:19;;;;;;;13.23;12.00;;;18.70;99.90;;;;;;5070452;28;20602;-85
2021/06/22 06:37:46;;;;;;;15.10;13.60;;;18.70;99.90;;;;;;5070477;28;20670;-85
2021/06/22 06:40:14;;;;;;;14.17;12.77;;;18.60;99.90;;;;;;5069850;28;20649;-85
2021/06/22 06:42:41;;;;;;;12.30;11.10;;;18.60;99.90;;;;;;5070249;28;20700;-86
2021/06/22 06:45:10;;;;;;;13.77;12.50;;;18.80;99.90;;;;;;5069930;28;20674;-86
2021/06/22 06:47:38;;;;;;;12.90;11.70;;;19.00;99.90;;;;;;5069756;28;20682;-86
2021/06/22 06:50:08;;;;;;;12.83;10.40;;;19.10;99.90;;;;;;5070581;28;21083;-85
2021/06/22 06:52:35;;;;;;;11.97;10.73;;;19.30;99.90;;;;;;5070420;28;20613;-86
2021/06/22 06:55:03;;;;;;;11.40;10.40;;;19.40;99.90;;;;;;5069792;28;21479;-86
2021/06/22 06:57:30;;;;;;;12.13;11.03;;;19.40;99.90;;;;;;5070172;28;20613;-86
2021/06/22 06:59:57;;;;;;;11.50;9.10;;;19.40;99.90;;;;;;5069877;28;20674;-86
2021/06/22 07:02:24;;;;;;;9.90;8.90;;;19.20;99.90;;;;;;5070022;28;20673;-86
2021/06/22 07:04:52;;;;;;;13.23;9.30;;;19.10;99.90;;;;;;5073347;28;20631;-86
2021/06/22 07:07:20;;;;;;;12.03;10.93;;;19.30;99.90;;;;;;5090417;28;20677;-85
2021/06/22 07:09:47;;;;;;;13.13;11.83;;;19.20;99.90;;;;;;5089798;28;20600;-85
2021/06/22 07:12:14;;;;;;;12.13;10.93;;;19.20;99.90;;;;;;5089903;28;20613;-86
2021/06/22 07:14:41;;;;;;;14.23;12.87;;;19.00;99.90;;;;;;5089420;28;20617;-85
2021/06/22 07:17:08;;;;;;;13.03;11.80;;;19.20;99.90;;;;;;5090221;28;20605;-85
2021/06/22 07:19:34;;;;;;;9.23;8.53;;;19.50;99.90;;;;;;5090445;28;20964;-84
2021/06/22 07:22:01;;;;;;;9.17;8.47;;;19.50;99.90;;;;;;5090023;28;20652;-85
2021/06/22 07:24:30;;;;;;;10.80;9.90;;;19.60;99.90;;;;;;5089596;28;20656;-85
2021/06/22 07:26:57;;;;;;;9.00;8.10;;;19.90;99.90;;;;;;5089762;28;20608;-85
2021/06/22 07:29:23;;;;;;;8.63;7.67;;;20.00;99.90;;;;;;5089960;28;20678;-85
2021/06/22 07:31:50;;;;;;;7.67;6.97;;;20.10;99.90;;;;;;5090180;28;20613;-85
2021/06/22 07:34:17;;;;;;;8.33;7.50;;;20.10;99.90;;;;;;5089692;28;21264;-85
2021/06/22 07:36:44;;;;;;;8.20;6.53;;;20.10;99.90;;;;;;5089935;28;20616;-85
2021/06/22 07:39:11;;;;;;;7.13;6.53;;;20.20;99.90;;;;;;5090045;28;20612;-85
2021/06/22 07:41:39;;;;;;;6.87;6.37;;;20.00;99.90;;;;;;5089384;28;20668;-85
2021/06/22 07:44:06;;;;;;;6.97;6.30;;;20.00;99.90;;;;;;5090072;28;20670;-85
2021/06/22 07:46:33;;;;;;;7.07;5.93;;;20.10;99.90;;;;;;5089658;28;20605;-85
2021/06/22 07:49:00;;;;;;;6.50;5.90;;;20.20;99.90;;;;;;5090196;28;20652;-85
2021/06/22 07:51:27;;;;;;;5.70;5.30;;;20.30;99.90;;;;;;5090016;28;20620;-86
2021/06/22 07:53:55;;;;;;;5.97;5.57;;;20.40;99.90;;;;;;5093724;28;20707;-86
2021/06/22 07:56:22;;;;;;;6.50;5.50;;;20.30;99.90;;;;;;5077144;28;20629;-87
2021/06/22 07:58:51;;;;;;;5.93;5.33;;;20.30;99.90;;;;;;5071796;28;20614;-87
2021/06/22 08:01:18;;;;;;;6.40;5.80;;;20.20;99.90;;;;;;5073438;28;21225;-87
2021/06/22 08:03:45;;;;;;;6.53;5.80;;;20.20;99.90;;;;;;5073501;28;20757;-87
2021/06/22 08:06:12;;;;;;;6.33;5.37;;;20.20;99.90;;;;;;5087777;28;20612;-87
2021/06/22 08:08:39;;;;;;;6.23;5.40;;;20.20;99.90;;;;;;5093485;28;21344;-86
2021/06/22 08:11:07;;;;;;;5.30;4.83;;;20.20;99.90;;;;;;5093111;28;20605;-87
2021/06/22 08:13:33;;;;;;;5.50;5.10;;;20.30;99.90;;;;;;5093513;28;20617;-87
2021/06/22 08:16:02;;;;;;;6.10;4.17;;;20.20;99.90;;;;;;5093622;28;21009;-87
2021/06/22 08:18:29;;;;;;;4.30;4.00;;;20.20;99.90;;;;;;5093704;28;20624;-87
2021/06/22 08:20:56;;;;;;;4.47;4.07;;;20.20;99.90;;;;;;5093362;28;20620;-86
2021/06/22 08:23:23;;;;;;;4.10;3.80;;;20.10;99.90;;;;;;5092976;28;20648;-85
2021/06/22 08:25:52;;;;;;;3.20;3.00;;;20.10;99.90;;;;;;5093534;28;21287;-85
2021/06/22 08:28:19;;;;;;;4.47;4.17;;;20.00;99.90;;;;;;5093605;28;20634;-85
2021/06/22 08:30:48;;;;;;;6.83;3.93;;;19.90;99.90;;;;;;5092971;28;20633;-86
2021/06/22 08:33:16;;;;;;;5.80;4.37;;;19.80;99.90;;;;;;5093273;28;20620;-86
2021/06/22 08:35:44;;;;;;;6.70;3.83;;;19.70;99.90;;;;;;5092693;28;21113;-86
2021/06/22 08:38:13;;;;;;;4.40;4.10;;;19.80;99.90;;;;;;5092845;28;21003;-85
2021/06/22 08:40:42;;;;;;;5.77;5.27;;;20.10;99.90;;;;;;5092867;28;20690;-85
2021/06/22 08:43:10;;;;;;;4.63;4.33;;;20.20;99.90;;;;;;5093016;28;20664;-85
2021/06/22 08:45:38;;;;;;;4.40;4.20;;;20.00;99.90;;;;;;5093325;28;20716;-84
2021/06/22 08:48:09;;;;;;;5.03;4.63;;;20.10;99.90;;;;;;5092873;28;20609;-85
2021/06/22 08:50:37;;;;;;;5.70;5.17;;;20.10;99.90;;;;;;5092371;28;20655;-85
2021/06/22 08:53:04;;;;;;;5.80;5.30;;;20.20;99.90;;;;;;5093158;28;21002;-85
2021/06/22 08:55:32;;;;;;;5.43;4.50;;;20.50;99.90;;;;;;5092828;28;20617;-85
2021/06/22 08:58:01;;;;;;;5.10;4.70;;;20.50;99.90;;;;;;5093288;28;20631;-85
2021/06/22 09:00:29;;;;;;;5.20;4.90;;;20.60;99.90;;;;;;5092474;28;20605;-85
2021/06/22 09:03:04;;;;;;;5.33;4.80;;;20.60;99.90;;;;;;5092278;28;21564;-85
2021/06/22 09:05:32;;;;;;;4.77;4.43;;;20.30;99.90;;;;;;5092109;28;21006;-85
2021/06/22 09:08:00;;;;;;;4.83;4.43;;;20.30;99.90;;;;;;5092762;28;20616;-85
2021/06/22 09:10:29;;;;;;;4.60;4.27;;;20.20;99.90;;;;;;5092049;28;20608;-84
2021/06/22 09:12:58;;;;;;;4.50;4.20;;;20.30;99.90;;;;;;5092393;28;21169;-85
2021/06/22 09:15:27;;;;;;;4.70;4.10;;;20.20;99.90;;;;;;5091744;28;20666;-85
2021/06/22 09:17:55;;;;;;;5.50;5.00;;;20.10;99.90;;;;;;5092568;28;20624;-86
2021/06/22 09:20:43;;;;;;;6.60;6.00;;;20.10;99.90;;;;;;5092058;28;21177;-85
2021/06/22 09:23:17;;;;;;;6.50;6.00;;;20.00;99.90;;;;;;5092459;28;20705;-85
2021/06/22 09:25:45;;;;;;;8.00;6.73;;;19.90;99.90;;;;;;5091258;28;21196;-84
2021/06/22 09:28:13;;;;;;;8.53;7.77;;;19.90;99.90;;;;;;5092438;28;20676;-84
2021/06/22 09:30:50;;;;;;;10.53;9.00;;;20.10;99.90;;;;;;5092068;28;20678;-84
2021/06/22 09:33:24;;;;;;;9.60;8.60;;;20.20;99.90;;;;;;5092314;28;20608;-85
2021/06/22 09:35:58;;;;;;;12.00;11.00;;;20.40;99.90;;;;;;5091194;28;20705;-85
2021/06/22 09:38:28;;;;;;;11.30;10.30;;;20.60;99.90;;;;;;5089422;28;20678;-85
2021/06/22 09:41:15;;;;;;;10.77;9.87;;;20.70;99.90;;;;;;5089875;28;20657;-84
2021/06/22 09:43:43;;;;;;;11.57;10.17;;;20.70;99.90;;;;;;5091783;28;20722;-84
2021/06/22 09:46:13;;;;;;;11.20;10.20;;;20.50;99.90;;;;;;5091317;28;20630;-84
2021/06/22 09:48:55;;;;;;;11.93;10.73;;;20.50;99.90;;;;;;5091211;28;20977;-85
2021/06/22 09:51:29;;;;;;;11.17;10.07;;;20.40;99.90;;;;;;5091473;28;20617;-85
2021/06/22 09:54:12;;;;;;;10.90;9.90;;;20.70;99.90;;;;;;5091691;28;20628;-84
2021/06/22 09:56:49;;;;;;;11.53;10.53;;;20.40;99.90;;;;;;5090975;28;20674;-84
2021/06/22 09:59:16;;;;;;;9.03;8.30;;;20.40;99.90;;;;;;5089522;28;20707;-84
2021/06/22 10:01:43;;;;;;;10.60;9.60;;;20.50;99.90;;;;;;5073075;28;21216;-84
2021/06/22 10:04:19;;;;;;;10.97;9.97;;;20.60;99.90;;;;;;5071642;28;20685;-83
2021/06/22 10:06:52;;;;;;;9.53;8.73;;;20.60;99.90;;;;;;5077431;28;20677;-84
2021/06/22 10:09:28;;;;;;;9.50;8.70;;;20.20;99.90;;;;;;5081495;28;20618;-84
2021/06/22 10:12:10;;;;;;;10.37;9.57;;;20.00;99.90;;;;;;5085573;28;21235;-83
2021/06/22 10:14:38;;;;;;;13.00;9.03;;;20.00;99.90;;;;;;5091580;28;21134;-84
2021/06/22 10:17:07;;;;;;;10.33;9.43;;;20.20;99.90;;;;;;5083435;28;20617;-84
2021/06/22 10:19:35;;;;;;;10.47;9.50;;;20.50;99.90;;;;;;5082811;28;20622;-84
2021/06/22 10:22:05;;;;;;;10.67;9.83;;;20.80;99.90;;;;;;5074862;28;21152;-83
2021/06/22 10:24:35;;;;;;;10.83;10.03;;;20.80;99.90;;;;;;5074217;28;20661;-83
2021/06/22 10:27:03;;;;;;;11.07;10.03;;;20.60;99.90;;;;;;5070649;28;20625;-83
2021/06/22 10:29:31;;;;;;;10.60;9.67;;;20.40;99.90;;;;;;5070536;28;21475;-84
2021/06/22 10:32:00;;;;;;;10.33;9.43;;;20.40;99.90;;;;;;5070445;28;21021;-84
2021/06/22 10:34:27;;;;;;;11.57;10.40;;;20.50;99.90;;;;;;5070331;28;20626;-84
2021/06/22 10:36:59;;;;;;;11.07;10.07;;;20.40;99.90;;;;;;5070334;28;21235;-82
2021/06/22 10:39:31;;;;;;;9.83;8.93;;;20.10;99.90;;;;;;5070536;28;20601;-84
2021/06/22 10:42:08;;;;;;;10.17;9.37;;;19.80;99.90;;;;;;5070362;28;20664;-83
2021/06/22 10:44:39;;;;;;;9.47;8.67;;;19.80;99.90;;;;;;5069926;28;20696;-83
2021/06/22 10:47:39;;;;;;;10.77;8.70;;;19.70;99.90;;;;;;5069306;28;20651;-83
2021/06/22 10:50:17;;;;;;;9.70;8.90;;;19.80;99.90;;;;;;5070565;28;20657;-83
2021/06/22 10:52:59;;;;;;;8.83;7.93;;;19.60;99.90;;;;;;5070608;28;20626;-83
2021/06/22 10:56:03;;;;;;;9.00;8.30;;;19.50;99.90;;;;;;5069251;28;20625;-83
2021/06/22 10:58:31;;;;;;;6.97;6.43;;;19.40;99.90;;;;;;5070604;28;21016;-83
2021/06/22 11:01:14;;;;;;;7.67;6.97;;;19.30;99.90;;;;;;5070236;28;20613;-83
2021/06/22 11:03:41;;;;;;;7.63;7.03;;;19.30;99.90;;;;;;5069673;28;20645;-83
2021/06/22 11:06:29;;;;;;;7.10;6.50;;;19.00;99.90;;;;;;5083889;28;20624;-83
2021/06/22 11:09:19;;;;;;;8.60;6.83;;;18.80;99.90;;;;;;5090500;28;21019;-83
2021/06/22 11:11:47;;;;;;;7.73;7.10;;;18.90;99.90;;;;;;5089711;28;20644;-83
2021/06/22 11:14:17;;;;;;;7.30;6.60;;;18.90;99.90;;;;;;5089600;28;20616;-83
2021/06/22 11:16:43;;;;;;;8.73;7.67;;;19.00;99.90;;;;;;5090494;28;20619;-83
2021/06/22 11:19:15;;;;;;;7.73;7.13;;;19.00;99.90;;;;;;5090240;28;21047;-83
2021/06/22 11:21:54;;;;;;;7.13;6.50;;;18.90;99.90;;;;;;5090319;28;20624;-83
2021/06/22 11:24:31;;;;;;;7.27;6.57;;;18.60;99.90;;;;;;5089674;28;21054;-83
2021/06/22 11:27:06;;;;;;;7.77;7.00;;;18.70;99.90;;;;;;5091410;28;20628;-83
2021/06/22 11:29:50;;;;;;;7.97;7.37;;;18.70;99.90;;;;;;5094445;28;20659;-83
2021/06/22 11:32:36;;;;;;;8.13;7.43;;;18.70;99.90;;;;;;5094163;28;20731;-83
2021/06/22 11:35:05;;;;;;;8.53;7.73;;;18.80;99.90;;;;;;5093458;28;20636;-82
2021/06/22 11:37:32;;;;;;;11.60;7.77;;;18.60;99.90;;;;;;5094218;28;20616;-82
2021/06/22 11:40:22;;;;;;;9.27;7.97;;;18.50;99.90;;;;;;5093921;28;20651;-83
2021/06/22 11:43:09;;;;;;;8.90;8.07;;;18.60;99.90;;;;;;5092580;28;20979;-82
2021/06/22 11:45:39;;;;;;;9.60;7.53;;;18.60;99.90;;;;;;5093287;28;20716;-82
2021/06/22 11:48:06;;;;;;;8.00;7.27;;;18.60;99.90;;;;;;5094169;28;20630;-83
2021/06/22 11:50:47;;;;;;;8.00;7.20;;;18.60;99.90;;;;;;5094152;28;20715;-83
2021/06/22 11:53:15;;;;;;;7.77;7.03;;;18.60;99.90;;;;;;5094104;28;20624;-82
2021/06/22 11:55:51;;;;;;;8.43;7.63;;;18.50;99.90;;;;;;5093182;28;20638;-82
2021/06/22 11:58:26;;;;;;;7.10;6.40;;;18.70;99.90;;;;;;5094180;28;20634;-83
2021/06/22 12:00:57;;;;;;;7.10;6.43;;;18.60;99.90;;;;;;5093708;28;20673;-83
2021/06/22 12:03:30;;;;;;;6.27;5.77;;;18.60;99.90;;;;;;5094067;28;20652;-83
2021/06/22 12:06:08;;;;;;;7.10;6.50;;;18.70;99.90;;;;;;5093485;28;20716;-83
2021/06/22 12:08:39;;;;;;;8.67;7.87;;;18.50;99.90;;;;;;5093731;28;20603;-82
2021/06/22 12:11:06;;;;;;;8.17;7.47;;;18.40;99.90;;;;;;5092996;28;20623;-82
2021/06/22 12:13:47;;;;;;;6.47;5.87;;;18.40;99.90;;;;;;5093760;28;20688;-82
2021/06/22 12:16:26;;;;;;;9.00;6.03;;;18.40;99.90;;;;;;5093007;28;20612;-83
2021/06/22 12:18:56;;;;;;;7.40;6.73;;;18.40;99.90;;;;;;5093072;28;21209;-83
2021/06/22 12:21:24;;;;;;;6.90;6.30;;;18.30;99.90;;;;;;5093641;28;20622;-83
2021/06/22 12:23:51;;;;;;;7.47;6.77;;;18.30;99.90;;;;;;5093460;28;20651;-83
2021/06/22 12:26:18;;;;;;;7.30;6.60;;;18.40;99.90;;;;;;5092801;28;20627;-82
2021/06/22 12:28:46;;;;;;;8.47;6.63;;;18.40;99.90;;;;;;5093375;28;20749;-82
2021/06/22 12:31:14;;;;;;;7.33;5.90;;;18.20;99.90;;;;;;5092708;28;21179;-82
2021/06/22 12:33:44;;;;;;;8.33;7.50;;;18.20;99.90;;;;;;5093324;28;20620;-82
2021/06/22 12:36:17;;;;;;;9.33;7.47;;;18.00;99.90;;;;;;5092816;28;20607;-83
2021/06/22 12:38:44;;;;;;;8.03;7.23;;;18.10;99.90;;;;;;5091795;28;21007;-83
2021/06/22 12:41:12;;;;;;;7.00;6.40;;;18.10;99.90;;;;;;5093181;28;20982;-83
2021/06/22 12:43:42;;;;;;;8.40;6.90;;;18.00;99.90;;;;;;5093022;28;21039;-82
2021/06/22 12:46:09;;;;;;;11.13;7.80;;;18.00;99.90;;;;;;5092649;28;20631;-81
2021/06/22 12:48:36;;;;;;;12.27;8.97;;;17.90;99.90;;;;;;5093229;28;20628;-80
2021/06/22 12:51:05;;;;;;;12.20;8.57;;;17.90;99.90;;;;;;5093038;28;20677;-81